Time;durP1;ratioP1;P1;durP2;ratioP2;P2;SDS_P1;SDS_P2;PMS_P1;PMS_P2;Temp;Humidity;BMP_temperature;BMP_pressure;BME280_temperature;BME280_humidity;BME280_pressure;Samples;Min_cycle;Max_cycle;Signal;HPM_P1;HPM_P2
2022/06/21 00:02:14;;;;;;;8.70;2.03;;;12.80;99.90;;;;;;5017628;28;20214;-72
2022/06/21 00:04:59;;;;;;;5.63;1.97;;;12.70;99.90;;;;;;5022234;28;20606;-72
2022/06/21 00:07:43;;;;;;;9.60;2.30;;;12.70;99.90;;;;;;5020081;28;20218;-74
2022/06/21 00:10:28;;;;;;;6.17;2.27;;;12.70;99.90;;;;;;5024090;28;20254;-72
2022/06/21 00:13:15;;;;;;;3.87;1.67;;;12.60;99.90;;;;;;5019803;28;20225;-73
2022/06/21 00:16:06;;;;;;;3.70;1.80;;;12.60;99.90;;;;;;5021424;28;20196;-72
2022/06/21 00:18:52;;;;;;;10.43;2.33;;;12.60;99.90;;;;;;5020560;28;20188;-72
2022/06/21 00:21:38;;;;;;;8.77;2.27;;;12.60;99.90;;;;;;5016789;28;20230;-73
2022/06/21 00:24:22;;;;;;;9.77;2.93;;;12.60;99.90;;;;;;5020452;28;20187;-72
2022/06/21 00:27:12;;;;;;;7.60;2.40;;;12.50;99.90;;;;;;5013966;28;20187;-71
2022/06/21 00:29:56;;;;;;;4.87;1.87;;;12.50;99.90;;;;;;5024941;28;20203;-72
2022/06/21 00:32:41;;;;;;;5.03;1.70;;;12.50;99.90;;;;;;5023411;28;20216;-73
2022/06/21 00:35:26;;;;;;;5.70;2.23;;;12.40;99.90;;;;;;5021266;28;20326;-74
2022/06/21 00:38:13;;;;;;;5.87;2.27;;;12.40;99.90;;;;;;5020666;28;20182;-73
2022/06/21 00:41:00;;;;;;;5.60;1.70;;;12.40;99.90;;;;;;5036662;28;20219;-73
2022/06/21 00:43:49;;;;;;;6.03;2.00;;;12.40;99.90;;;;;;5016330;28;20266;-72
2022/06/21 00:46:39;;;;;;;6.77;1.80;;;12.40;99.90;;;;;;5026379;28;20186;-73
2022/06/21 00:49:33;;;;;;;8.60;2.63;;;12.30;99.90;;;;;;5024538;28;20377;-72
2022/06/21 00:52:23;;;;;;;3.47;1.63;;;12.30;99.90;;;;;;5020732;28;20772;-74
2022/06/21 00:55:18;;;;;;;6.73;1.70;;;12.20;99.90;;;;;;5022898;28;20199;-71
2022/06/21 00:58:03;;;;;;;10.20;1.80;;;12.20;99.90;;;;;;5021772;28;20658;-72
2022/06/21 01:00:49;;;;;;;7.50;1.83;;;12.10;99.90;;;;;;5019251;28;20203;-72
2022/06/21 01:03:40;;;;;;;5.00;1.80;;;12.10;99.90;;;;;;5023854;28;20219;-73
2022/06/21 01:06:36;;;;;;;5.13;2.17;;;12.00;99.90;;;;;;5026276;28;20196;-72
2022/06/21 01:09:36;;;;;;;4.80;1.67;;;11.90;99.90;;;;;;5035752;28;20191;-73
2022/06/21 01:12:24;;;;;;;3.97;1.60;;;11.90;99.90;;;;;;5021409;28;20349;-72
2022/06/21 01:15:20;;;;;;;4.10;1.80;;;11.80;99.90;;;;;;5022767;28;20191;-73
2022/06/21 01:18:07;;;;;;;4.73;1.83;;;11.70;99.90;;;;;;5031329;28;20557;-73
2022/06/21 01:20:55;;;;;;;5.07;2.00;;;11.70;99.90;;;;;;5020399;28;20276;-72
2022/06/21 01:24:06;;;;;;;8.07;2.53;;;11.60;99.90;;;;;;5031039;28;20303;-73
2022/06/21 01:26:58;;;;;;;6.03;2.27;;;11.60;99.90;;;;;;5021523;28;20205;-72
2022/06/21 01:29:43;;;;;;;4.87;2.00;;;11.60;99.90;;;;;;5018943;28;20239;-70
2022/06/21 01:32:27;;;;;;;6.03;2.57;;;11.50;99.90;;;;;;5021823;28;20231;-71
2022/06/21 01:35:25;;;;;;;7.03;2.03;;;11.40;99.90;;;;;;5022929;28;20213;-72
2022/06/21 01:38:16;;;;;;;8.37;2.17;;;11.40;99.90;;;;;;5023930;28;20211;-72
2022/06/21 01:41:08;;;;;;;8.23;2.40;;;11.30;99.90;;;;;;5022958;28;20216;-72
2022/06/21 01:43:54;;;;;;;6.70;1.93;;;11.40;99.90;;;;;;5029120;28;20249;-73
2022/06/21 01:46:39;;;;;;;8.70;2.43;;;11.30;99.90;;;;;;5023423;28;20188;-74
2022/06/21 01:49:28;;;;;;;7.83;2.30;;;11.30;99.90;;;;;;5023177;28;20239;-73
2022/06/21 01:52:16;;;;;;;6.63;2.13;;;11.30;99.90;;;;;;5025478;28;20277;-71
2022/06/21 01:55:13;;;;;;;6.43;2.50;;;11.30;99.90;;;;;;5019332;28;20341;-71
2022/06/21 01:57:59;;;;;;;6.80;2.77;;;11.30;99.90;;;;;;5025271;28;20337;-72
2022/06/21 02:00:49;;;;;;;5.87;2.40;;;11.20;99.90;;;;;;5024039;28;20235;-72
2022/06/21 02:03:37;;;;;;;4.37;2.30;;;11.20;99.90;;;;;;5025789;28;20212;-71
2022/06/21 02:06:26;;;;;;;4.83;2.33;;;11.20;99.90;;;;;;5029334;28;20230;-72
2022/06/21 02:09:22;;;;;;;9.27;2.90;;;11.10;99.90;;;;;;5018930;28;20587;-71
2022/06/21 02:12:11;;;;;;;11.60;2.20;;;11.10;99.90;;;;;;5032075;28;20342;-73
2022/06/21 02:14:56;;;;;;;5.60;2.30;;;11.00;99.90;;;;;;5020186;28;20199;-72
2022/06/21 02:17:43;;;;;;;6.10;2.13;;;11.00;99.90;;;;;;5035469;28;20238;-72
2022/06/21 02:20:37;;;;;;;6.10;2.50;;;11.00;99.90;;;;;;5024408;28;20194;-72
2022/06/21 02:23:22;;;;;;;6.20;2.37;;;11.00;99.90;;;;;;5028363;28;20316;-71
2022/06/21 02:26:09;;;;;;;7.67;3.07;;;10.90;99.90;;;;;;5026466;28;20199;-72
2022/06/21 02:28:53;;;;;;;7.13;2.30;;;10.90;99.90;;;;;;5037805;28;20187;-71
2022/06/21 02:31:38;;;;;;;4.30;2.43;;;10.80;99.90;;;;;;5021657;28;20267;-71
2022/06/21 02:34:31;;;;;;;6.63;2.20;;;10.80;99.90;;;;;;5031367;28;20196;-71
2022/06/21 02:37:16;;;;;;;5.30;2.53;;;10.80;99.90;;;;;;5013379;28;20199;-75
2022/06/21 02:40:04;;;;;;;3.70;2.40;;;10.70;99.90;;;;;;5022630;28;20236;-71
2022/06/21 02:42:50;;;;;;;6.33;2.80;;;10.70;99.90;;;;;;5026741;28;20261;-70
2022/06/21 02:45:59;;;;;;;5.13;2.60;;;10.60;99.90;;;;;;5034617;28;20230;-72
2022/06/21 02:48:52;;;;;;;4.70;2.20;;;10.60;99.90;;;;;;5027916;28;20190;-71
2022/06/21 02:51:51;;;;;;;5.87;2.77;;;10.60;99.90;;;;;;5024714;28;20243;-70
2022/06/21 02:54:44;;;;;;;9.93;2.57;;;10.60;99.90;;;;;;5018557;28;20203;-71
2022/06/21 02:57:42;;;;;;;5.87;2.87;;;10.60;99.90;;;;;;5028202;28;20200;-71
2022/06/21 03:00:26;;;;;;;4.67;2.53;;;10.60;99.90;;;;;;5023715;28;20202;-72
2022/06/21 03:03:16;;;;;;;9.07;2.67;;;10.50;99.90;;;;;;5017982;28;20207;-72
2022/06/21 03:06:05;;;;;;;6.87;2.70;;;10.40;99.90;;;;;;5023071;28;20191;-71
2022/06/21 03:09:14;;;;;;;8.17;2.97;;;10.40;99.90;;;;;;5035682;28;20179;-72
2022/06/21 03:12:01;;;;;;;8.83;2.87;;;10.30;99.90;;;;;;5021224;28;20601;-72
2022/06/21 03:14:48;;;;;;;4.83;2.47;;;10.30;99.90;;;;;;5024827;28;20207;-72
2022/06/21 03:17:52;;;;;;;3.20;2.43;;;10.30;99.90;;;;;;5018997;28;20212;-71
2022/06/21 03:20:36;;;;;;;5.70;2.73;;;10.30;99.90;;;;;;5017280;28;20271;-71
2022/06/21 03:23:22;;;;;;;6.60;2.47;;;10.30;99.90;;;;;;5025607;28;20219;-70
2022/06/21 03:26:06;;;;;;;5.90;2.70;;;10.30;99.90;;;;;;5024933;28;20237;-71
2022/06/21 03:28:52;;;;;;;7.80;2.70;;;10.30;99.90;;;;;;5016764;28;20675;-70
2022/06/21 03:31:44;;;;;;;5.90;2.50;;;10.30;99.90;;;;;;5027077;28;20207;-71
2022/06/21 03:34:29;;;;;;;7.00;2.80;;;10.30;99.90;;;;;;5022641;28;20198;-71
2022/06/21 03:37:13;;;;;;;7.13;2.53;;;10.30;99.90;;;;;;5014880;28;20184;-71
2022/06/21 03:43:41;;;;;;;6.23;2.33;;;10.30;99.90;;;;;;5022491;28;20291;-70
2022/06/21 03:46:32;;;;;;;2.53;2.20;;;10.30;99.90;;;;;;4966587;28;20285;-72
2022/06/21 03:49:35;;;;;;;7.43;2.50;;;10.30;99.90;;;;;;5019810;28;20184;-70
2022/06/21 03:52:41;;;;;;;7.10;3.00;;;10.20;99.90;;;;;;5035358;28;20224;-70
2022/06/21 03:55:53;;;;;;;7.40;2.83;;;10.20;99.90;;;;;;5023794;28;20199;-71
2022/06/21 03:58:44;;;;;;;11.27;2.90;;;10.30;99.90;;;;;;5023978;28;20202;-71
2022/06/21 04:01:49;;;;;;;6.77;2.73;;;10.30;99.90;;;;;;5025297;28;20336;-72
2022/06/21 04:04:56;;;;;;;8.17;3.53;;;10.30;99.90;;;;;;5019156;28;20238;-71
2022/06/21 04:07:58;;;;;;;5.77;3.23;;;10.30;99.90;;;;;;5022821;28;20225;-71
2022/06/21 04:10:53;;;;;;;11.80;2.90;;;10.30;99.90;;;;;;5020241;28;20191;-72
2022/06/21 04:13:56;;;;;;;9.73;4.00;;;10.30;99.90;;;;;;5015299;28;20225;-71
2022/06/21 04:16:52;;;;;;;6.60;4.03;;;10.30;99.90;;;;;;5026543;28;20254;-72
2022/06/21 04:19:49;;;;;;;7.40;3.53;;;10.30;99.90;;;;;;5026440;28;20230;-71
2022/06/21 04:22:42;;;;;;;7.80;3.50;;;10.40;99.90;;;;;;5018532;28;20371;-70
2022/06/21 04:25:38;;;;;;;9.50;3.33;;;10.40;99.90;;;;;;5028604;28;20187;-71
2022/06/21 04:28:29;;;;;;;11.60;3.57;;;10.40;99.90;;;;;;5025339;28;20187;-72
2022/06/21 04:31:16;;;;;;;6.47;3.87;;;10.40;99.90;;;;;;5029581;28;20210;-71
2022/06/21 04:34:07;;;;;;;9.03;3.67;;;10.40;99.90;;;;;;5026310;28;20234;-71
2022/06/21 04:37:28;;;;;;;7.50;3.30;;;10.40;99.90;;;;;;5031103;28;20234;-71
2022/06/21 04:40:23;;;;;;;6.50;3.40;;;10.40;99.90;;;;;;5022458;28;20188;-71
2022/06/21 04:43:19;;;;;;;7.27;3.63;;;10.40;99.90;;;;;;5027087;28;20253;-70
2022/06/21 04:46:15;;;;;;;6.20;3.90;;;10.40;99.90;;;;;;5014406;28;20284;-72
2022/06/21 04:49:15;;;;;;;8.80;3.83;;;10.40;99.90;;;;;;5025495;28;20231;-71
2022/06/21 04:52:21;;;;;;;5.37;3.60;;;10.50;99.90;;;;;;5031135;28;20237;-71
2022/06/21 04:55:14;;;;;;;11.40;5.13;;;10.60;99.90;;;;;;5031757;28;20237;-71
2022/06/21 04:57:58;;;;;;;13.10;4.67;;;10.60;99.90;;;;;;5026677;28;20198;-71
2022/06/21 05:00:42;;;;;;;13.13;4.73;;;10.70;99.90;;;;;;5024651;28;20222;-71
2022/06/21 05:03:38;;;;;;;6.70;4.20;;;10.80;99.90;;;;;;5031752;28;20587;-71
2022/06/21 05:06:22;;;;;;;8.73;3.93;;;10.80;99.90;;;;;;5028490;28;20552;-69
2022/06/21 05:09:08;;;;;;;9.67;4.00;;;10.90;99.90;;;;;;5036004;28;20184;-71
2022/06/21 05:11:59;;;;;;;11.63;4.60;;;10.90;99.90;;;;;;5025189;28;20223;-71
2022/06/21 05:14:52;;;;;;;6.33;3.80;;;11.00;99.90;;;;;;5027082;28;20191;-71
2022/06/21 05:17:40;;;;;;;14.70;4.90;;;11.10;99.90;;;;;;5025501;28;20235;-72
2022/06/21 05:20:31;;;;;;;7.80;3.90;;;11.10;99.90;;;;;;5020716;28;20188;-71
2022/06/21 05:23:18;;;;;;;13.10;4.20;;;11.20;99.90;;;;;;5029129;28;20215;-70
2022/06/21 05:26:06;;;;;;;8.43;3.87;;;11.20;99.90;;;;;;5026676;28;20191;-70
2022/06/21 05:29:10;;;;;;;8.47;4.40;;;11.30;99.90;;;;;;5024475;28;20231;-70
2022/06/21 05:31:59;;;;;;;15.03;5.00;;;11.30;99.90;;;;;;5025525;28;20257;-71
2022/06/21 05:34:48;;;;;;;11.93;4.07;;;11.40;99.90;;;;;;5021991;28;20268;-71
2022/06/21 05:37:46;;;;;;;12.13;4.60;;;11.50;99.90;;;;;;5023222;28;20703;-71
2022/06/21 05:40:48;;;;;;;10.37;4.13;;;11.60;99.90;;;;;;5025732;28;20222;-72
2022/06/21 05:43:45;;;;;;;7.27;4.57;;;11.60;99.90;;;;;;5033318;28;20214;-72
2022/06/21 05:46:34;;;;;;;11.60;4.10;;;11.70;99.90;;;;;;5019937;28;20180;-72
2022/06/21 05:49:26;;;;;;;9.90;4.87;;;11.70;99.90;;;;;;5031791;28;20674;-71
2022/06/21 05:52:24;;;;;;;8.60;3.93;;;11.80;99.90;;;;;;5031323;28;20297;-71
2022/06/21 05:55:31;;;;;;;12.00;5.03;;;11.80;99.90;;;;;;5021508;28;20200;-71
2022/06/21 05:58:27;;;;;;;11.57;4.57;;;11.90;99.90;;;;;;5026562;28;20195;-71
2022/06/21 06:01:17;;;;;;;7.57;4.17;;;12.00;99.90;;;;;;5024508;28;20219;-71
2022/06/21 06:04:15;;;;;;;8.43;4.37;;;12.10;99.90;;;;;;5036209;28;20212;-72
2022/06/21 06:07:01;;;;;;;7.70;4.00;;;12.10;99.90;;;;;;5030283;28;20667;-72
2022/06/21 06:09:48;;;;;;;8.90;4.20;;;12.20;99.90;;;;;;5031005;28;20200;-70
2022/06/21 06:12:37;;;;;;;5.67;3.57;;;12.30;99.90;;;;;;5029587;28;20311;-71
2022/06/21 06:15:34;;;;;;;9.40;3.70;;;12.30;99.90;;;;;;5036839;28;20191;-72
2022/06/21 06:18:38;;;;;;;9.00;3.53;;;12.40;99.90;;;;;;5015900;28;20187;-71
2022/06/21 06:21:36;;;;;;;8.67;3.70;;;12.40;99.90;;;;;;5027906;28;20245;-72
2022/06/21 06:24:30;;;;;;;10.57;3.53;;;12.50;99.90;;;;;;5043877;28;20186;-71
2022/06/21 06:27:30;;;;;;;7.73;3.33;;;12.60;99.90;;;;;;5030566;28;20187;-71
2022/06/21 06:30:20;;;;;;;9.57;3.90;;;12.60;99.90;;;;;;5025736;28;20205;-71
2022/06/21 06:33:17;;;;;;;12.50;3.93;;;12.70;99.90;;;;;;5032297;28;20187;-71
2022/06/21 06:36:08;;;;;;;6.60;3.63;;;12.70;99.90;;;;;;5027776;28;20239;-71
2022/06/21 06:38:54;;;;;;;11.20;4.20;;;12.80;99.90;;;;;;5026891;28;20207;-71
2022/06/21 06:41:56;;;;;;;12.77;4.00;;;12.90;99.90;;;;;;5019301;28;20294;-73
2022/06/21 06:44:49;;;;;;;8.33;3.50;;;13.00;99.90;;;;;;5022201;28;20258;-71
2022/06/21 06:47:36;;;;;;;11.87;3.37;;;13.00;99.90;;;;;;5029196;28;20726;-71
2022/06/21 06:50:45;;;;;;;8.37;3.57;;;13.10;99.90;;;;;;5022964;28;20233;-71
2022/06/21 06:53:44;;;;;;;9.60;3.80;;;13.10;99.90;;;;;;5027130;28;20267;-72
2022/06/21 06:56:43;;;;;;;11.50;3.27;;;13.20;99.90;;;;;;5034392;28;20186;-72
2022/06/21 06:59:28;;;;;;;8.53;3.10;;;13.30;99.90;;;;;;5026281;28;20207;-71
2022/06/21 07:02:39;;;;;;;10.80;3.10;;;13.40;99.90;;;;;;5024385;28;20215;-71
2022/06/21 07:05:37;;;;;;;7.00;3.47;;;13.40;99.90;;;;;;5022835;28;20298;-71
2022/06/21 07:08:55;;;;;;;12.17;3.27;;;13.50;99.90;;;;;;5019398;28;20180;-72
2022/06/21 07:11:39;;;;;;;7.43;3.13;;;13.60;99.90;;;;;;5026634;28;20261;-71
2022/06/21 07:14:26;;;;;;;9.13;2.73;;;13.70;99.90;;;;;;5030058;28;20191;-71
2022/06/21 07:17:25;;;;;;;5.50;2.60;;;13.70;99.90;;;;;;5027056;28;20260;-72
2022/06/21 07:20:21;;;;;;;10.97;2.33;;;13.80;99.90;;;;;;5031378;28;20233;-72
2022/06/21 07:23:20;;;;;;;5.87;1.70;;;13.80;99.90;;;;;;5024993;28;20207;-71
2022/06/21 07:26:24;;;;;;;6.90;2.30;;;13.90;99.90;;;;;;5032208;28;20199;-71
2022/06/21 07:29:29;;;;;;;3.10;1.80;;;14.00;99.90;;;;;;5032094;28;20218;-71
2022/06/21 07:32:19;;;;;;;6.50;1.97;;;14.00;99.90;;;;;;5026673;28;20221;-72
2022/06/21 07:35:14;;;;;;;4.93;2.23;;;14.10;99.90;;;;;;5023877;28;20176;-72
2022/06/21 07:38:09;;;;;;;5.10;1.20;;;14.20;99.90;;;;;;5019925;28;20403;-71
2022/06/21 07:41:00;;;;;;;10.20;2.00;;;14.20;99.90;;;;;;5023561;28;20275;-72
2022/06/21 07:43:48;;;;;;;7.43;2.20;;;14.20;99.90;;;;;;5026111;28;20243;-73
2022/06/21 07:46:41;;;;;;;7.53;2.17;;;14.20;99.90;;;;;;5018370;28;20207;-71
2022/06/21 07:49:33;;;;;;;7.50;1.70;;;14.30;99.90;;;;;;5016908;28;20188;-72
2022/06/21 07:52:29;;;;;;;7.03;1.90;;;14.40;99.90;;;;;;5004226;28;20227;-71
2022/06/21 07:55:19;;;;;;;3.37;1.77;;;14.40;99.90;;;;;;5006793;28;20263;-72
2022/06/21 07:58:10;;;;;;;5.63;1.90;;;14.50;99.90;;;;;;5031459;28;20199;-72
2022/06/21 08:07:20;;;;;;;4.07;1.80;;;14.70;99.90;;;;;;5027068;28;20215;-72
2022/06/21 08:10:09;;;;;;;8.73;2.47;;;14.80;99.90;;;;;;5033982;28;20211;-73
2022/06/21 08:12:55;;;;;;;6.77;1.87;;;14.80;99.90;;;;;;5024657;28;20219;-72
2022/06/21 08:15:45;;;;;;;9.10;2.27;;;14.90;99.90;;;;;;5034643;28;20207;-72
2022/06/21 08:18:39;;;;;;;9.97;2.07;;;14.90;99.90;;;;;;5027069;28;20192;-72
2022/06/21 08:21:31;;;;;;;9.33;1.83;;;15.10;99.90;;;;;;5035361;28;20211;-72
2022/06/21 08:24:19;;;;;;;4.80;1.80;;;15.20;99.90;;;;;;5022304;28;20277;-72
2022/06/21 08:27:22;;;;;;;4.03;1.70;;;15.30;99.90;;;;;;5042747;28;20195;-72
2022/06/21 08:30:40;;;;;;;4.87;1.67;;;15.40;99.90;;;;;;5022381;28;20230;-72
2022/06/21 08:33:53;;;;;;;4.73;1.90;;;15.50;99.90;;;;;;5025340;28;20219;-72
2022/06/21 08:36:47;;;;;;;5.23;1.77;;;15.60;99.90;;;;;;5035776;28;20238;-72
2022/06/21 08:39:40;;;;;;;6.97;1.93;;;15.60;99.90;;;;;;5022450;28;20203;-72
2022/06/21 08:42:24;;;;;;;2.53;1.97;;;15.70;99.90;;;;;;5037044;28;20218;-72
2022/06/21 08:48:56;;;;;;;2.90;1.70;;;16.00;99.90;;;;;;5036412;28;20266;-72
2022/06/21 08:52:08;;;;;;;9.20;2.30;;;16.10;99.90;;;;;;5025751;28;20223;-72
2022/06/21 08:55:11;;;;;;;5.07;1.70;;;16.20;99.90;;;;;;5026840;28;20184;-72
2022/06/21 08:58:22;;;;;;;5.37;1.57;;;16.20;99.90;;;;;;5034750;28;20257;-72
2022/06/21 09:01:49;;;;;;;7.80;1.77;;;16.30;99.90;;;;;;5024926;28;20761;-72
2022/06/21 09:04:45;;;;;;;6.00;1.93;;;16.30;99.90;;;;;;5030203;28;20198;-72
2022/06/21 09:08:08;;;;;;;4.90;1.53;;;16.30;99.90;;;;;;5021383;28;20190;-72
2022/06/21 09:11:06;;;;;;;5.00;1.87;;;16.40;99.90;;;;;;4981143;28;20192;-73
2022/06/21 09:14:19;;;;;;;6.27;1.73;;;16.50;99.90;;;;;;5024577;28;20658;-73
2022/06/21 09:17:28;;;;;;;7.33;1.83;;;16.50;99.90;;;;;;5022268;28;20567;-72
2022/06/21 09:20:15;;;;;;;5.27;1.33;;;16.60;99.90;;;;;;5036644;28;20226;-72
2022/06/21 09:23:07;;;;;;;5.67;1.60;;;16.60;99.90;;;;;;5031116;28;20226;-72
2022/06/21 09:26:05;;;;;;;3.87;1.80;;;16.60;99.90;;;;;;5026954;28;20196;-73
2022/06/21 09:28:57;;;;;;;9.73;1.70;;;16.60;99.90;;;;;;5025569;28;20187;-73
2022/06/21 09:32:06;;;;;;;15.27;2.50;;;16.70;99.90;;;;;;5029480;28;20219;-73
2022/06/21 09:35:19;;;;;;;5.73;1.70;;;16.90;99.90;;;;;;5022458;28;20219;-73
2022/06/21 09:38:22;;;;;;;4.13;1.43;;;17.00;99.90;;;;;;5027527;28;20192;-73
2022/06/21 09:41:28;;;;;;;3.37;1.90;;;17.10;99.90;;;;;;5020303;28;20242;-73
2022/06/21 09:44:22;;;;;;;5.50;1.73;;;17.20;99.90;;;;;;5018225;28;20274;-73
2022/06/21 09:47:24;;;;;;;7.87;2.00;;;17.30;99.90;;;;;;5023622;28;20184;-74
2022/06/21 09:50:15;;;;;;;4.93;2.00;;;17.30;99.90;;;;;;5018245;28;20608;-73
2022/06/21 09:53:09;;;;;;;4.33;1.77;;;17.40;99.90;;;;;;5021295;28;20214;-73
2022/06/21 09:56:19;;;;;;;7.00;1.80;;;17.30;99.90;;;;;;5023765;28;20667;-74
2022/06/21 09:59:23;;;;;;;5.73;1.93;;;17.30;99.90;;;;;;5024876;28;20310;-73
2022/06/21 10:02:41;;;;;;;6.80;1.97;;;17.30;99.90;;;;;;5021749;28;20219;-73
2022/06/21 10:05:46;;;;;;;4.70;1.30;;;17.40;99.90;;;;;;5041174;28;20554;-73
2022/06/21 10:08:52;;;;;;;2.67;1.23;;;17.50;99.90;;;;;;5024191;28;20675;-74
2022/06/21 10:11:52;;;;;;;3.53;1.60;;;17.50;99.90;;;;;;5028565;28;20730;-74
2022/06/21 10:14:57;;;;;;;5.00;1.60;;;17.60;99.90;;;;;;5021540;28;20255;-74
2022/06/21 10:18:09;;;;;;;2.17;1.40;;;17.60;99.90;;;;;;5026660;28;20233;-74
2022/06/21 10:21:13;;;;;;;4.90;1.27;;;17.60;99.90;;;;;;5017641;28;20549;-72
2022/06/21 10:24:16;;;;;;;3.10;1.20;;;17.70;99.90;;;;;;5021458;28;20710;-73
2022/06/21 10:27:23;;;;;;;3.47;1.20;;;17.70;99.90;;;;;;5022722;28;20222;-72
2022/06/21 10:30:33;;;;;;;3.63;1.30;;;17.80;99.90;;;;;;5011010;28;20564;-73
2022/06/21 10:33:41;;;;;;;3.83;1.43;;;17.90;99.90;;;;;;5037076;28;20275;-74
2022/06/21 10:36:35;;;;;;;3.53;1.50;;;18.00;99.90;;;;;;5023217;28;20186;-73
2022/06/21 10:39:41;;;;;;;2.83;1.20;;;18.10;99.90;;;;;;5021516;28;20226;-73
2022/06/21 10:42:47;;;;;;;10.07;1.60;;;18.20;99.90;;;;;;5023005;28;20739;-73
2022/06/21 10:46:00;;;;;;;5.00;1.60;;;18.30;99.90;;;;;;5015628;28;20208;-72
2022/06/21 10:49:11;;;;;;;8.43;1.67;;;18.30;99.90;;;;;;5026014;28;20195;-73
2022/06/21 10:52:17;;;;;;;4.27;1.50;;;18.30;99.90;;;;;;5025605;28;20301;-73
2022/06/21 10:55:34;;;;;;;3.47;1.00;;;18.30;99.90;;;;;;5030808;28;20179;-74
2022/06/21 10:58:41;;;;;;;4.87;1.50;;;18.40;99.90;;;;;;5027620;28;20179;-73
2022/06/21 11:01:46;;;;;;;4.05;1.30;;;18.60;99.90;;;;;;5030946;28;20229;-73
2022/06/21 11:04:39;;;;;;;5.78;1.52;;;18.80;99.90;;;;;;5026432;28;20549;-73
2022/06/21 11:07:38;;;;;;;3.90;1.30;;;18.90;99.90;;;;;;5023431;28;20187;-73
2022/06/21 11:10:29;;;;;;;3.38;1.20;;;18.90;99.90;;;;;;5032788;28;20185;-74
2022/06/21 11:13:17;;;;;;;2.70;1.17;;;18.90;99.90;;;;;;5034379;28;20640;-72
2022/06/21 11:16:19;;;;;;;5.50;1.15;;;18.90;99.90;;;;;;5022479;28;20188;-73
2022/06/21 11:19:51;;;;;;;4.68;1.10;;;19.10;99.90;;;;;;5030004;28;20191;-72
2022/06/21 11:22:59;;;;;;;6.47;1.95;;;19.10;99.90;;;;;;5031958;28;20274;-73
2022/06/21 11:25:52;;;;;;;3.33;0.95;;;19.20;99.90;;;;;;5032208;28;20228;-73
2022/06/21 11:28:50;;;;;;;3.60;1.15;;;19.20;99.90;;;;;;5028261;28;20228;-73
2022/06/21 11:31:45;;;;;;;4.97;1.10;;;19.30;99.90;;;;;;5038069;28;20214;-73
2022/06/21 11:34:56;;;;;;;5.30;1.20;;;19.30;99.90;;;;;;5026315;28;20328;-72
2022/06/21 11:38:10;;;;;;;3.40;1.10;;;19.30;99.90;;;;;;5025327;28;20306;-73
2022/06/21 11:45:14;;;;;;;3.65;1.08;;;19.40;99.90;;;;;;5019308;28;20246;-72
2022/06/21 11:48:01;;;;;;;2.42;1.10;;;19.50;99.90;;;;;;5037009;28;20194;-73
2022/06/21 11:51:11;;;;;;;2.63;0.95;;;19.60;99.90;;;;;;5028926;28;20196;-73
2022/06/21 11:54:06;;;;;;;5.90;1.58;;;19.70;99.90;;;;;;5026099;28;20196;-72
2022/06/21 11:57:01;;;;;;;5.13;1.30;;;19.70;99.90;;;;;;5024935;28;20203;-72
2022/06/21 11:59:54;;;;;;;3.25;1.00;;;19.80;99.90;;;;;;5022070;28;20200;-72
2022/06/21 12:02:46;;;;;;;4.13;1.27;;;19.90;99.90;;;;;;5026121;28;20262;-73
2022/06/21 12:06:10;;;;;;;4.57;1.15;;;19.90;99.90;;;;;;5027025;28;20187;-72
2022/06/21 12:09:09;;;;;;;4.25;1.17;;;20.00;99.90;;;;;;4998333;28;20234;-73
2022/06/21 12:12:14;;;;;;;3.50;1.08;;;20.00;99.90;;;;;;5033735;28;20261;-72
2022/06/21 12:15:20;;;;;;;2.78;1.27;;;20.10;99.90;;;;;;5034990;28;20216;-72
2022/06/21 12:18:15;;;;;;;4.90;1.33;;;20.10;99.90;;;;;;5028039;28;20191;-72
2022/06/21 12:21:10;;;;;;;2.80;1.30;;;20.10;99.90;;;;;;5018245;28;20270;-72
2022/06/21 12:23:57;;;;;;;2.35;1.13;;;20.10;99.90;;;;;;5025028;28;20212;-72
2022/06/21 12:26:43;;;;;;;4.47;1.33;;;20.20;99.90;;;;;;5016760;28;20218;-72
2022/06/21 12:29:28;;;;;;;3.65;1.38;;;20.20;99.90;;;;;;5015193;28;20191;-73
2022/06/21 12:32:20;;;;;;;3.33;1.30;;;20.20;99.90;;;;;;5038946;28;20278;-73
2022/06/21 12:35:14;;;;;;;3.00;1.05;;;20.30;99.90;;;;;;5034569;28;20860;-73
2022/06/21 12:37:58;;;;;;;1.77;1.13;;;20.40;99.90;;;;;;5019473;28;20203;-74
2022/06/21 12:40:50;;;;;;;4.90;1.17;;;20.40;99.90;;;;;;5016941;28;20235;-73
2022/06/21 12:44:07;;;;;;;6.85;1.25;;;20.50;99.90;;;;;;5018768;28;20276;-73
2022/06/21 12:47:19;;;;;;;2.85;1.20;;;20.60;99.90;;;;;;5028134;28;20230;-73
2022/06/21 12:50:36;;;;;;;6.50;1.10;;;20.70;99.90;;;;;;5026699;28;20316;-72
2022/06/21 12:53:23;;;;;;;2.47;1.00;;;20.80;99.90;;;;;;5021281;28;20241;-73
2022/06/21 12:56:38;;;;;;;4.30;1.20;;;20.90;99.90;;;;;;5024853;28;20202;-72
2022/06/21 12:59:35;;;;;;;3.53;0.80;;;21.00;99.90;;;;;;5011199;28;20204;-73
2022/06/21 13:02:39;;;;;;;3.83;1.08;;;21.00;99.90;;;;;;5030538;28;20235;-73
2022/06/21 13:05:43;;;;;;;5.25;1.40;;;20.90;99.90;;;;;;5017450;28;20196;-73
2022/06/21 13:09:05;;;;;;;4.47;1.05;;;20.90;99.90;;;;;;5026527;28;20242;-73
2022/06/21 13:12:16;;;;;;;8.20;2.03;;;21.00;99.90;;;;;;5027956;28;20709;-73
2022/06/21 13:15:23;;;;;;;4.38;1.42;;;21.00;99.90;;;;;;5028454;28;20206;-73
2022/06/21 13:18:37;;;;;;;4.68;1.00;;;21.10;99.90;;;;;;5034478;28;20225;-73
2022/06/21 13:21:37;;;;;;;2.00;0.77;;;21.10;99.90;;;;;;5021584;28;20693;-74
2022/06/21 13:24:46;;;;;;;2.60;0.80;;;21.00;99.90;;;;;;5019124;28;20327;-74
2022/06/21 13:28:01;;;;;;;2.80;0.93;;;21.10;99.90;;;;;;5026798;28;20271;-73
2022/06/21 13:31:01;;;;;;;3.75;1.00;;;21.20;99.90;;;;;;5023611;28;20320;-73
2022/06/21 13:33:51;;;;;;;3.13;0.95;;;21.30;99.90;;;;;;5030570;28;20210;-73
2022/06/21 13:36:40;;;;;;;1.88;0.85;;;21.40;99.90;;;;;;5020654;28;20231;-72
2022/06/21 13:39:41;;;;;;;4.18;1.13;;;21.50;99.90;;;;;;5027175;28;20194;-73
2022/06/21 13:42:56;;;;;;;3.75;1.40;;;21.50;99.90;;;;;;5026572;28;20219;-73
2022/06/21 13:46:02;;;;;;;4.10;1.00;;;21.50;99.90;;;;;;5050573;28;20190;-73
2022/06/21 13:48:52;;;;;;;3.25;0.88;;;21.60;99.90;;;;;;5024130;28;20218;-73
2022/06/21 13:51:48;;;;;;;3.45;1.02;;;21.60;99.90;;;;;;5024359;28;20617;-73
2022/06/21 13:54:47;;;;;;;3.55;1.38;;;21.70;99.90;;;;;;5032312;28;20191;-73
2022/06/21 13:57:54;;;;;;;5.55;1.20;;;21.80;99.90;;;;;;5033103;28;20229;-73
2022/06/21 14:00:54;;;;;;;4.47;1.30;;;21.80;99.90;;;;;;5027602;28;20234;-73
2022/06/21 14:04:20;;;;;;;2.45;1.00;;;22.00;99.90;;;;;;5029386;28;20335;-73
2022/06/21 14:07:34;;;;;;;2.22;0.93;;;22.10;99.90;;;;;;5015560;28;20667;-74
2022/06/21 14:10:47;;;;;;;3.90;1.00;;;22.00;99.90;;;;;;5011844;28;20302;-74
2022/06/21 14:13:39;;;;;;;4.90;1.23;;;22.10;99.90;;;;;;5024599;28;20572;-74
2022/06/21 14:16:42;;;;;;;6.03;0.90;;;22.20;99.90;;;;;;5021562;28;20203;-73
2022/06/21 14:19:31;;;;;;;4.25;1.00;;;22.30;99.90;;;;;;5030577;28;20194;-74
2022/06/21 14:22:41;;;;;;;6.65;1.00;;;22.30;99.90;;;;;;5022611;28;20243;-74
2022/06/21 14:25:46;;;;;;;8.57;1.02;;;22.30;99.90;;;;;;5020591;28;20190;-73
2022/06/21 14:28:36;;;;;;;2.20;1.05;;;22.50;99.90;;;;;;5019137;28;20211;-73
2022/06/21 14:31:26;;;;;;;5.22;1.17;;;22.60;99.90;;;;;;5019265;28;20223;-74
2022/06/21 14:34:19;;;;;;;6.25;1.23;;;22.60;99.90;;;;;;5018070;28;20192;-74
2022/06/21 14:37:28;;;;;;;3.97;1.10;;;22.70;99.90;;;;;;5024227;28;20203;-74
2022/06/21 14:40:21;;;;;;;5.53;1.00;;;22.70;99.90;;;;;;5021325;28;20191;-74
2022/06/21 14:43:23;;;;;;;2.55;1.05;;;22.70;99.90;;;;;;5037148;28;20264;-74
2022/06/21 14:46:25;;;;;;;2.67;0.90;;;22.70;99.90;;;;;;5040058;28;20213;-74
2022/06/21 14:49:20;;;;;;;2.92;1.20;;;22.70;99.90;;;;;;5036382;28;20191;-73
2022/06/21 14:52:16;;;;;;;4.53;1.00;;;22.70;99.90;;;;;;5030775;28;20258;-74
2022/06/21 14:55:33;;;;;;;2.80;1.00;;;22.70;99.90;;;;;;5020598;28;20273;-74
2022/06/21 14:58:45;;;;;;;2.95;1.00;;;22.70;99.90;;;;;;5028453;28;20215;-74
2022/06/21 15:01:49;;;;;;;4.50;1.13;;;22.70;99.90;;;;;;5015389;28;20633;-74
2022/06/21 15:05:02;;;;;;;2.80;1.00;;;22.60;99.90;;;;;;5026353;28;20215;-73
2022/06/21 15:07:58;;;;;;;6.22;1.10;;;22.60;99.90;;;;;;4999875;28;20218;-74
2022/06/21 15:10:49;;;;;;;4.82;1.00;;;22.70;99.90;;;;;;5021618;28;20219;-73
2022/06/21 15:13:54;;;;;;;3.05;1.30;;;22.60;99.90;;;;;;5016862;28;20239;-73
2022/06/21 15:17:19;;;;;;;2.38;1.25;;;22.60;99.90;;;;;;5029364;28;20218;-73
2022/06/21 15:20:29;;;;;;;2.20;1.27;;;22.60;99.90;;;;;;4981836;28;20251;-74
2022/06/21 15:23:18;;;;;;;2.60;1.10;;;22.60;99.90;;;;;;5025225;28;20211;-73
2022/06/21 15:26:23;;;;;;;5.70;1.48;;;22.60;99.90;;;;;;5028452;28;20704;-74
2022/06/21 15:29:28;;;;;;;4.85;1.00;;;22.70;99.90;;;;;;5031266;28;20257;-74
2022/06/21 15:32:24;;;;;;;2.58;1.13;;;22.60;99.90;;;;;;5027843;28;20285;-74
2022/06/21 15:35:08;;;;;;;7.55;1.40;;;22.60;99.90;;;;;;5018316;28;20195;-73
2022/06/21 15:38:00;;;;;;;1.75;0.90;;;22.60;99.90;;;;;;5024419;28;20230;-73